Time;durP1;ratioP1;P1;durP2;ratioP2;P2;SDS_P1;SDS_P2;PMS_P1;PMS_P2;Temp;Humidity;BMP_temperature;BMP_pressure;BME280_temperature;BME280_humidity;BME280_pressure;Samples;Min_cycle;Max_cycle;Signal;HPM_P1;HPM_P2
2023/08/13 00:00:29;;;;;;;5.93;3.75;;;;;;;;;;4977049;28;20207;-56
2023/08/13 00:03:16;;;;;;;4.55;3.22;;;;;;;;;;4977189;28;20203;-57
2023/08/13 00:05:46;;;;;;;5.75;3.40;;;;;;;;;;4976760;28;20206;-58
2023/08/13 00:08:13;;;;;;;4.68;3.70;;;;;;;;;;4976677;28;20206;-58
2023/08/13 00:10:40;;;;;;;5.85;3.22;;;;;;;;;;4976620;28;20292;-55
2023/08/13 00:13:09;;;;;;;6.57;3.15;;;;;;;;;;4975877;28;20238;-58
2023/08/13 00:15:36;;;;;;;6.80;3.53;;;;;;;;;;4975698;28;20211;-57
2023/08/13 00:18:04;;;;;;;4.88;2.97;;;;;;;;;;4974641;28;20227;-59
2023/08/13 00:20:31;;;;;;;9.00;3.58;;;;;;;;;;4974812;28;20234;-56
2023/08/13 00:23:01;;;;;;;4.05;3.03;;;;;;;;;;4974692;28;20269;-55
2023/08/13 00:25:28;;;;;;;6.07;3.67;;;;;;;;;;4974462;28;20614;-55
2023/08/13 00:27:56;;;;;;;4.10;3.30;;;;;;;;;;4974606;28;20202;-54
2023/08/13 00:30:23;;;;;;;7.47;3.58;;;;;;;;;;4974365;28;20214;-59
2023/08/13 00:32:50;;;;;;;3.75;2.97;;;;;;;;;;4975586;28;20230;-58
2023/08/13 00:35:17;;;;;;;5.53;3.17;;;;;;;;;;4975220;28;20214;-56
2023/08/13 00:37:44;;;;;;;5.50;3.17;;;;;;;;;;4975326;28;20207;-55
2023/08/13 00:40:12;;;;;;;3.10;2.50;;;;;;;;;;4976334;28;20222;-57
2023/08/13 00:42:39;;;;;;;4.78;3.42;;;;;;;;;;4976240;28;20218;-56
2023/08/13 00:45:06;;;;;;;4.18;3.40;;;;;;;;;;4975994;28;20238;-60
2023/08/13 00:47:34;;;;;;;4.82;3.60;;;;;;;;;;4975701;28;20198;-59
2023/08/13 00:50:03;;;;;;;6.38;3.42;;;;;;;;;;4976202;28;20234;-56
2023/08/13 00:52:31;;;;;;;4.35;3.67;;;;;;;;;;4976086;28;20231;-58
2023/08/13 00:54:58;;;;;;;4.60;3.35;;;;;;;;;;4974765;28;20293;-55
2023/08/13 00:57:26;;;;;;;4.68;3.28;;;;;;;;;;4974649;28;20213;-56
2023/08/13 00:59:53;;;;;;;3.88;3.20;;;;;;;;;;4975698;28;20209;-57
2023/08/13 01:02:21;;;;;;;6.57;3.45;;;;;;;;;;4974471;28;20230;-56
2023/08/13 01:04:48;;;;;;;6.10;3.40;;;;;;;;;;4973952;28;20203;-56
2023/08/13 01:07:30;;;;;;;4.80;3.40;;;;;;;;;;4976112;28;20203;-55
2023/08/13 01:10:17;;;;;;;3.95;3.25;;;;;;;;;;4974437;28;20245;-54
2023/08/13 01:12:49;;;;;;;4.10;3.30;;;;;;;;;;4975487;28;20234;-60
2023/08/13 01:15:19;;;;;;;4.45;3.15;;;;;;;;;;4958851;28;20608;-55
2023/08/13 01:17:51;;;;;;;6.40;3.47;;;;;;;;;;4974560;28;20211;-59
2023/08/13 01:20:18;;;;;;;5.68;3.65;;;;;;;;;;4975849;28;20234;-56
2023/08/13 01:22:47;;;;;;;4.75;3.63;;;;;;;;;;4974112;28;20676;-58
2023/08/13 01:25:15;;;;;;;6.72;3.88;;;;;;;;;;4974358;28;20207;-59
2023/08/13 01:27:51;;;;;;;9.75;4.10;;;;;;;;;;4974394;28;20207;-58
2023/08/13 01:30:25;;;;;;;4.80;3.72;;;;;;;;;;4958124;28;20727;-57
2023/08/13 01:33:03;;;;;;;5.65;4.13;;;;;;;;;;4973896;28;20258;-56
2023/08/13 01:35:32;;;;;;;9.10;3.60;;;;;;;;;;4973973;28;20726;-57
2023/08/13 01:38:00;;;;;;;5.97;3.90;;;;;;;;;;4958323;28;20210;-55
2023/08/13 01:40:27;;;;;;;4.85;3.60;;;;;;;;;;4975462;28;20207;-58
2023/08/13 01:42:55;;;;;;;4.97;3.67;;;;;;;;;;4973838;28;20308;-56
2023/08/13 01:45:23;;;;;;;6.25;3.97;;;;;;;;;;4975209;28;20302;-56
2023/08/13 01:47:50;;;;;;;4.88;3.40;;;;;;;;;;4973715;28;20207;-55
2023/08/13 01:50:18;;;;;;;4.00;3.58;;;;;;;;;;4973713;28;20207;-57
2023/08/13 01:52:45;;;;;;;7.03;4.13;;;;;;;;;;4973919;28;20305;-54
2023/08/13 01:55:14;;;;;;;7.43;3.92;;;;;;;;;;4975362;28;20210;-58
2023/08/13 01:57:41;;;;;;;6.93;4.07;;;;;;;;;;4973820;28;20202;-60
2023/08/13 02:00:08;;;;;;;4.32;3.47;;;;;;;;;;4973563;28;20215;-55
2023/08/13 02:02:35;;;;;;;5.72;3.50;;;;;;;;;;4974805;28;20218;-57
2023/08/13 02:05:03;;;;;;;7.15;3.70;;;;;;;;;;4974943;28;20203;-59
2023/08/13 02:07:30;;;;;;;6.80;3.50;;;;;;;;;;4973689;28;20226;-58
2023/08/13 02:09:57;;;;;;;6.80;3.85;;;;;;;;;;4974625;28;20214;-58
2023/08/13 02:12:25;;;;;;;5.20;3.72;;;;;;;;;;4974395;28;20243;-58
2023/08/13 02:14:52;;;;;;;6.13;3.80;;;;;;;;;;4974812;28;20202;-55
2023/08/13 02:17:19;;;;;;;5.43;3.67;;;;;;;;;;4973427;28;20207;-59
2023/08/13 02:19:46;;;;;;;4.25;3.00;;;;;;;;;;4975012;28;20206;-56
2023/08/13 02:22:13;;;;;;;5.13;3.13;;;;;;;;;;4974866;28;20269;-57
2023/08/13 02:24:41;;;;;;;6.32;3.60;;;;;;;;;;4974799;28;20222;-54
2023/08/13 02:27:09;;;;;;;6.40;3.90;;;;;;;;;;4974451;28;20211;-58
2023/08/13 02:29:36;;;;;;;9.57;3.92;;;;;;;;;;4974444;28;21076;-56
2023/08/13 02:32:03;;;;;;;6.50;4.30;;;;;;;;;;4974357;28;20627;-56
2023/08/13 02:34:42;;;;;;;5.68;3.38;;;;;;;;;;4974872;28;20215;-56
2023/08/13 02:37:10;;;;;;;7.03;4.50;;;;;;;;;;4974640;28;20187;-57
2023/08/13 02:39:37;;;;;;;5.93;3.47;;;;;;;;;;4974194;28;20325;-56
2023/08/13 02:42:04;;;;;;;4.25;3.38;;;;;;;;;;4973143;28;20219;-60
2023/08/13 02:44:31;;;;;;;4.97;3.50;;;;;;;;;;4974081;28;20205;-57
2023/08/13 02:46:59;;;;;;;4.90;3.33;;;;;;;;;;4974022;28;20543;-58
2023/08/13 02:49:26;;;;;;;6.15;2.72;;;;;;;;;;4974052;28;20290;-57
2023/08/13 02:51:53;;;;;;;4.95;2.75;;;;;;;;;;4974041;28;20207;-56
2023/08/13 02:54:20;;;;;;;3.95;2.80;;;;;;;;;;4972787;28;20257;-57
2023/08/13 02:56:47;;;;;;;4.40;2.90;;;;;;;;;;4973033;28;20207;-59
2023/08/13 02:59:14;;;;;;;5.60;3.67;;;;;;;;;;4973016;28;20302;-57
2023/08/13 03:01:44;;;;;;;7.03;3.58;;;;;;;;;;4973005;28;20207;-57
2023/08/13 03:04:11;;;;;;;5.88;4.00;;;;;;;;;;4973872;28;20217;-57
2023/08/13 03:06:39;;;;;;;7.47;4.78;;;;;;;;;;4973891;28;20261;-53
2023/08/13 03:09:06;;;;;;;7.75;4.18;;;;;;;;;;4973868;28;20202;-55
2023/08/13 03:11:34;;;;;;;6.05;4.30;;;;;;;;;;4972643;28;20246;-54
2023/08/13 03:14:01;;;;;;;10.15;4.63;;;;;;;;;;4972786;28;20231;-56
2023/08/13 03:16:28;;;;;;;7.82;4.05;;;;;;;;;;4974064;28;20215;-59
2023/08/13 03:18:55;;;;;;;11.55;3.88;;;;;;;;;;4972603;28;20538;-57
2023/08/13 03:21:23;;;;;;;6.57;4.10;;;;;;;;;;4973743;28;20202;-56
2023/08/13 03:23:50;;;;;;;5.57;4.22;;;;;;;;;;4972586;28;20211;-57
2023/08/13 03:26:18;;;;;;;10.27;4.57;;;;;;;;;;4972737;28;20210;-58
2023/08/13 03:28:45;;;;;;;6.75;4.55;;;;;;;;;;4973880;28;20547;-58
2023/08/13 03:31:16;;;;;;;6.10;4.50;;;;;;;;;;4976143;28;20203;-59
2023/08/13 03:33:47;;;;;;;8.07;4.15;;;;;;;;;;4977024;28;20223;-56
2023/08/13 03:36:15;;;;;;;6.28;3.97;;;;;;;;;;4977026;28;20215;-59
2023/08/13 03:38:42;;;;;;;4.78;3.83;;;;;;;;;;4977324;28;20229;-59
2023/08/13 03:41:09;;;;;;;9.43;4.22;;;;;;;;;;4977373;28;20213;-56
2023/08/13 03:43:36;;;;;;;6.65;3.63;;;;;;;;;;4977328;28;20214;-59
2023/08/13 03:46:03;;;;;;;6.20;4.13;;;;;;;;;;4977387;28;20206;-57
2023/08/13 03:48:30;;;;;;;7.32;3.83;;;;;;;;;;4959394;28;20616;-54
2023/08/13 03:50:58;;;;;;;6.05;3.55;;;;;;;;;;4977040;28;20207;-58
2023/08/13 03:53:25;;;;;;;7.43;4.78;;;;;;;;;;4975730;28;20322;-59
2023/08/13 03:55:54;;;;;;;10.15;5.65;;;;;;;;;;4975991;28;20206;-56
2023/08/13 03:58:21;;;;;;;8.52;5.68;;;;;;;;;;4977428;28;20210;-56
2023/08/13 04:00:49;;;;;;;8.50;5.57;;;;;;;;;;4959743;28;20257;-57
2023/08/13 04:03:17;;;;;;;9.50;4.85;;;;;;;;;;4976712;28;20739;-59
2023/08/13 04:05:53;;;;;;;7.65;5.00;;;;;;;;;;4975955;28;20187;-56
2023/08/13 04:08:20;;;;;;;8.98;5.03;;;;;;;;;;4976696;28;20301;-53
2023/08/13 04:10:49;;;;;;;7.68;5.20;;;;;;;;;;4975603;28;20605;-56
2023/08/13 04:13:16;;;;;;;6.78;4.85;;;;;;;;;;4975760;28;20223;-53
2023/08/13 04:15:44;;;;;;;9.30;5.25;;;;;;;;;;4975501;28;20269;-58
2023/08/13 04:18:12;;;;;;;8.25;5.45;;;;;;;;;;4974042;28;20686;-58
2023/08/13 04:20:39;;;;;;;10.90;5.50;;;;;;;;;;4975351;28;20194;-55
2023/08/13 04:23:07;;;;;;;10.23;5.05;;;;;;;;;;4975514;28;20227;-54
2023/08/13 04:25:36;;;;;;;7.18;4.68;;;;;;;;;;4975611;28;20207;-56
2023/08/13 04:28:04;;;;;;;8.23;4.88;;;;;;;;;;4974019;28;20207;-54
2023/08/13 04:30:35;;;;;;;8.52;4.82;;;;;;;;;;4974893;28;20205;-59
2023/08/13 04:33:02;;;;;;;8.02;5.10;;;;;;;;;;4973516;28;20218;-56
2023/08/13 04:35:31;;;;;;;8.57;5.10;;;;;;;;;;4958982;28;20551;-58
2023/08/13 04:37:59;;;;;;;8.95;4.47;;;;;;;;;;4974505;28;20203;-56
2023/08/13 04:40:27;;;;;;;7.82;4.80;;;;;;;;;;4974354;28;20238;-60
2023/08/13 04:42:54;;;;;;;7.40;4.28;;;;;;;;;;4975494;28;20282;-59
2023/08/13 04:45:23;;;;;;;7.57;4.25;;;;;;;;;;4974311;28;20656;-58
2023/08/13 04:47:50;;;;;;;7.95;4.18;;;;;;;;;;4974577;28;20273;-57
2023/08/13 04:50:18;;;;;;;10.43;4.43;;;;;;;;;;4973747;28;20675;-58
2023/08/13 04:52:45;;;;;;;6.43;3.97;;;;;;;;;;4974407;28;20223;-56
2023/08/13 04:55:16;;;;;;;6.68;4.03;;;;;;;;;;4975658;28;20199;-57
2023/08/13 04:57:43;;;;;;;10.07;4.18;;;;;;;;;;4979230;28;20210;-54
2023/08/13 05:00:12;;;;;;;6.57;4.22;;;;;;;;;;4973651;28;20203;-59
2023/08/13 05:02:43;;;;;;;9.32;4.57;;;;;;;;;;4973851;28;20223;-57
2023/08/13 05:05:10;;;;;;;6.45;4.10;;;;;;;;;;4974246;28;20206;-58
2023/08/13 05:07:38;;;;;;;9.88;4.50;;;;;;;;;;4970491;28;20711;-58
2023/08/13 05:10:07;;;;;;;9.15;4.63;;;;;;;;;;4975539;28;20205;-57
2023/08/13 05:12:34;;;;;;;6.95;4.63;;;;;;;;;;4975031;28;20230;-60
2023/08/13 05:15:03;;;;;;;5.55;4.20;;;;;;;;;;4973896;28;20202;-58
2023/08/13 05:17:30;;;;;;;6.45;4.28;;;;;;;;;;4973759;28;20667;-57
2023/08/13 05:19:59;;;;;;;7.10;4.40;;;;;;;;;;4973652;28;20199;-51
2023/08/13 05:22:26;;;;;;;7.55;4.90;;;;;;;;;;4966235;28;20594;-53
2023/08/13 05:24:53;;;;;;;5.80;4.22;;;;;;;;;;4965339;28;20253;-49
2023/08/13 05:27:22;;;;;;;5.10;4.13;;;;;;;;;;4971848;28;20226;-54
2023/08/13 05:29:49;;;;;;;6.75;3.92;;;;;;;;;;4973871;28;20206;-49
2023/08/13 05:32:17;;;;;;;5.60;4.18;;;;;;;;;;4973581;28;20555;-54
2023/08/13 05:34:44;;;;;;;8.27;4.25;;;;;;;;;;4972119;28;20227;-51
2023/08/13 05:37:12;;;;;;;6.80;4.97;;;;;;;;;;4973414;28;20604;-54
2023/08/13 05:39:40;;;;;;;6.65;4.15;;;;;;;;;;4970124;28;20258;-48
2023/08/13 05:42:07;;;;;;;7.97;3.95;;;;;;;;;;4973771;28;20198;-49
2023/08/13 05:44:35;;;;;;;10.93;4.70;;;;;;;;;;4973565;28;20206;-57
2023/08/13 05:47:03;;;;;;;6.55;4.72;;;;;;;;;;4957265;28;20555;-50
2023/08/13 05:49:31;;;;;;;8.95;5.00;;;;;;;;;;4954415;29;20218;-50
2023/08/13 05:51:58;;;;;;;7.72;4.80;;;;;;;;;;4954147;28;20212;-50
2023/08/13 05:54:25;;;;;;;8.00;5.38;;;;;;;;;;4955430;28;20699;-47
2023/08/13 05:56:53;;;;;;;6.97;4.78;;;;;;;;;;4955608;28;20231;-49
2023/08/13 05:59:21;;;;;;;10.23;4.47;;;;;;;;;;4955536;28;20208;-50
2023/08/13 06:01:48;;;;;;;9.35;5.05;;;;;;;;;;4955401;28;20200;-57
2023/08/13 06:04:15;;;;;;;6.82;4.50;;;;;;;;;;4955370;28;20699;-47
2023/08/13 06:06:42;;;;;;;6.80;4.68;;;;;;;;;;4967294;28;20210;-47
2023/08/13 06:09:09;;;;;;;9.93;4.68;;;;;;;;;;4974689;28;20222;-47
2023/08/13 06:11:37;;;;;;;6.45;4.35;;;;;;;;;;4974665;28;20238;-51
2023/08/13 06:14:04;;;;;;;7.28;4.57;;;;;;;;;;4974411;28;20226;-49
2023/08/13 06:16:31;;;;;;;9.80;4.05;;;;;;;;;;4974750;28;20289;-49
2023/08/13 06:18:59;;;;;;;9.93;4.28;;;;;;;;;;4974654;28;20210;-48
2023/08/13 06:21:26;;;;;;;5.68;3.88;;;;;;;;;;4974414;28;20207;-49
2023/08/13 06:23:53;;;;;;;5.32;3.45;;;;;;;;;;4974575;28;20206;-47
2023/08/13 06:26:20;;;;;;;6.57;3.88;;;;;;;;;;4954047;28;20227;-47
2023/08/13 06:28:47;;;;;;;6.70;3.13;;;;;;;;;;4970128;28;20234;-49
2023/08/13 06:31:14;;;;;;;5.95;3.20;;;;;;;;;;4968822;28;20222;-50
2023/08/13 06:34:02;;;;;;;4.28;3.13;;;;;;;;;;4966941;28;20245;-49
2023/08/13 06:36:29;;;;;;;4.30;3.10;;;;;;;;;;4973619;28;20237;-50
2023/08/13 06:38:56;;;;;;;5.38;3.20;;;;;;;;;;4973382;28;20222;-51
2023/08/13 06:41:24;;;;;;;5.75;3.45;;;;;;;;;;4973365;28;20313;-47
2023/08/13 06:43:52;;;;;;;5.25;2.97;;;;;;;;;;4972261;28;20226;-50
2023/08/13 06:46:19;;;;;;;5.35;3.08;;;;;;;;;;4973745;28;20762;-47
2023/08/13 06:48:46;;;;;;;11.25;2.92;;;;;;;;;;4973723;28;20227;-52
2023/08/13 06:51:13;;;;;;;5.70;3.30;;;;;;;;;;4973731;28;20668;-48
2023/08/13 06:53:41;;;;;;;5.28;3.20;;;;;;;;;;4973599;28;20718;-49
2023/08/13 06:56:08;;;;;;;4.65;2.85;;;;;;;;;;4973000;28;20234;-50
2023/08/13 06:58:35;;;;;;;9.68;3.40;;;;;;;;;;4973098;28;20233;-52
2023/08/13 07:01:02;;;;;;;7.00;3.25;;;;;;;;;;4973193;28;20258;-52
2023/08/13 07:03:30;;;;;;;4.70;3.15;;;;;;;;;;4969582;28;20223;-50
2023/08/13 07:05:57;;;;;;;5.25;2.97;;;;;;;;;;4966016;28;20310;-53
2023/08/13 07:08:24;;;;;;;5.47;3.15;;;;;;;;;;4974559;28;20246;-48
2023/08/13 07:10:51;;;;;;;21.75;3.55;;;;;;;;;;4968317;28;20245;-48
2023/08/13 07:13:18;;;;;;;8.63;3.72;;;;;;;;;;4977408;28;20238;-50
2023/08/13 07:15:45;;;;;;;4.20;3.15;;;;;;;;;;4977174;28;20309;-55
2023/08/13 07:18:13;;;;;;;4.15;2.90;;;;;;;;;;4977391;28;20234;-50
2023/08/13 07:20:40;;;;;;;4.32;2.80;;;;;;;;;;4977036;28;20223;-51
2023/08/13 07:23:07;;;;;;;4.47;3.00;;;;;;;;;;4977111;28;20278;-50
2023/08/13 07:25:34;;;;;;;4.63;2.78;;;;;;;;;;4976211;28;20233;-51
2023/08/13 07:28:02;;;;;;;3.80;2.78;;;;;;;;;;4965515;28;20230;-48
2023/08/13 07:30:29;;;;;;;4.72;2.97;;;;;;;;;;4972811;28;20223;-47
2023/08/13 07:32:56;;;;;;;5.30;2.67;;;;;;;;;;4969712;28;20222;-48
2023/08/13 07:35:24;;;;;;;3.75;2.45;;;;;;;;;;4966990;28;20254;-48
2023/08/13 07:37:52;;;;;;;4.35;3.00;;;;;;;;;;4972867;28;20720;-48
2023/08/13 07:40:19;;;;;;;2.90;2.35;;;;;;;;;;4983041;28;20725;-48
2023/08/13 07:42:46;;;;;;;5.07;2.70;;;;;;;;;;4996096;28;20226;-48
2023/08/13 07:45:13;;;;;;;4.53;2.38;;;;;;;;;;4996212;28;20312;-48
2023/08/13 07:47:41;;;;;;;2.65;2.13;;;;;;;;;;4996063;28;20261;-50
2023/08/13 07:50:08;;;;;;;3.78;2.58;;;;;;;;;;4995846;28;20230;-50
2023/08/13 07:52:36;;;;;;;4.05;2.28;;;;;;;;;;4996198;28;20234;-49
2023/08/13 07:55:03;;;;;;;4.75;2.38;;;;;;;;;;4977018;28;20293;-49
2023/08/13 07:57:30;;;;;;;9.32;2.38;;;;;;;;;;4970982;28;20242;-48
2023/08/13 07:59:58;;;;;;;3.38;2.45;;;;;;;;;;4961629;28;20223;-50
2023/08/13 08:02:26;;;;;;;3.72;2.35;;;;;;;;;;4964144;28;20218;-52
2023/08/13 08:04:53;;;;;;;5.35;2.60;;;;;;;;;;4975393;28;20218;-57
2023/08/13 08:07:21;;;;;;;3.97;2.58;;;;;;;;;;4976255;28;20219;-58
2023/08/13 08:09:48;;;;;;;3.67;2.42;;;;;;;;;;4975632;28;20246;-56
2023/08/13 08:12:16;;;;;;;5.10;2.83;;;;;;;;;;4975638;28;20637;-57
2023/08/13 08:14:43;;;;;;;4.97;2.35;;;;;;;;;;4974021;28;20715;-54
2023/08/13 08:17:10;;;;;;;4.00;2.47;;;;;;;;;;4974925;28;20643;-55
2023/08/13 08:19:37;;;;;;;3.30;2.30;;;;;;;;;;4975785;28;20230;-53
2023/08/13 08:22:04;;;;;;;4.65;2.15;;;;;;;;;;4975101;28;20239;-53
2023/08/13 08:24:32;;;;;;;2.80;2.15;;;;;;;;;;4975049;28;20715;-52
2023/08/13 08:26:59;;;;;;;7.68;2.42;;;;;;;;;;4975365;28;20238;-56
2023/08/13 08:29:26;;;;;;;33.95;6.82;;;;;;;;;;4974933;28;20246;-45
2023/08/13 08:31:53;;;;;;;17.58;3.88;;;;;;;;;;4975771;28;20203;-58
2023/08/13 08:34:20;;;;;;;12.30;2.65;;;;;;;;;;4976189;28;20244;-49
2023/08/13 08:36:48;;;;;;;7.07;2.65;;;;;;;;;;4976016;28;20207;-51
2023/08/13 08:39:15;;;;;;;3.17;2.20;;;;;;;;;;4975721;28;20278;-47
2023/08/13 08:41:46;;;;;;;3.38;2.08;;;;;;;;;;4974953;28;20214;-47
2023/08/13 08:44:22;;;;;;;5.63;2.25;;;;;;;;;;4975593;28;20199;-48
2023/08/13 08:46:52;;;;;;;4.30;2.33;;;;;;;;;;4976178;28;20186;-48
2023/08/13 08:49:21;;;;;;;3.50;2.00;;;;;;;;;;4975149;28;20203;-46
2023/08/13 08:51:49;;;;;;;2.88;2.08;;;;;;;;;;4974359;28;20206;-47
2023/08/13 08:54:17;;;;;;;4.82;2.50;;;;;;;;;;4967217;28;20294;-48
2023/08/13 08:56:44;;;;;;;7.68;2.30;;;;;;;;;;4975485;28;20223;-50
2023/08/13 08:59:12;;;;;;;5.72;2.28;;;;;;;;;;4975805;28;20210;-49
2023/08/13 09:01:40;;;;;;;2.58;2.03;;;;;;;;;;4986552;28;20201;-51
2023/08/13 09:04:08;;;;;;;3.90;2.20;;;;;;;;;;4975476;28;20202;-48
2023/08/13 09:06:55;;;;;;;5.80;2.38;;;;;;;;;;4973864;28;20579;-47
2023/08/13 09:09:22;;;;;;;2.78;2.17;;;;;;;;;;4955856;28;20202;-50
2023/08/13 09:11:50;;;;;;;3.55;1.85;;;;;;;;;;4955512;29;20244;-50
2023/08/13 09:14:18;;;;;;;7.90;2.10;;;;;;;;;;4973242;28;20218;-48
2023/08/13 09:16:51;;;;;;;4.13;2.20;;;;;;;;;;4974381;28;20210;-48
2023/08/13 09:19:18;;;;;;;3.35;1.80;;;;;;;;;;4974810;28;20195;-47
2023/08/13 09:21:51;;;;;;;3.70;2.42;;;;;;;;;;4974573;28;20202;-49
2023/08/13 09:24:19;;;;;;;2.35;1.60;;;;;;;;;;4974267;28;20203;-49
2023/08/13 09:26:47;;;;;;;2.28;1.95;;;;;;;;;;4973462;28;20207;-47
2023/08/13 09:29:14;;;;;;;3.65;2.13;;;;;;;;;;4974825;28;20209;-47
2023/08/13 09:31:42;;;;;;;3.13;2.22;;;;;;;;;;4974685;28;20206;-51
2023/08/13 09:34:09;;;;;;;3.97;2.20;;;;;;;;;;4973924;28;20241;-57
2023/08/13 09:36:38;;;;;;;3.70;1.98;;;;;;;;;;4973755;28;20203;-51
2023/08/13 09:39:07;;;;;;;3.95;2.03;;;;;;;;;;4974416;28;20198;-52
2023/08/13 09:41:35;;;;;;;2.70;1.75;;;;;;;;;;4972828;28;20206;-48
2023/08/13 09:44:09;;;;;;;10.73;3.00;;;;;;;;;;4989061;28;20687;-47
2023/08/13 09:46:39;;;;;;;8.02;2.25;;;;;;;;;;4973332;28;20671;-47
2023/08/13 09:49:09;;;;;;;5.47;2.08;;;;;;;;;;4973692;28;20213;-49
2023/08/13 09:51:40;;;;;;;2.95;2.15;;;;;;;;;;4973693;28;20691;-48
2023/08/13 09:54:20;;;;;;;8.52;3.47;;;;;;;;;;4973857;28;20589;-50
2023/08/13 09:56:53;;;;;;;2.88;1.90;;;;;;;;;;4975042;28;20215;-47
2023/08/13 09:59:20;;;;;;;5.25;2.20;;;;;;;;;;4974866;28;20207;-47
2023/08/13 10:01:48;;;;;;;2.58;1.98;;;;;;;;;;4974835;28;20203;-47
2023/08/13 10:04:15;;;;;;;3.78;1.70;;;;;;;;;;4973796;28;20210;-48
2023/08/13 10:06:43;;;;;;;2.80;1.90;;;;;;;;;;4974996;28;20586;-47
2023/08/13 10:09:10;;;;;;;2.97;1.98;;;;;;;;;;4974670;28;20203;-47
2023/08/13 10:11:38;;;;;;;2.33;1.75;;;;;;;;;;4975059;28;20238;-47
2023/08/13 10:14:05;;;;;;;2.38;1.63;;;;;;;;;;4974494;28;20214;-47
2023/08/13 10:16:32;;;;;;;2.33;1.77;;;;;;;;;;4991343;28;20209;-48
2023/08/13 10:19:00;;;;;;;2.33;1.83;;;;;;;;;;4993882;28;20205;-47
2023/08/13 10:21:37;;;;;;;4.78;2.10;;;;;;;;;;4993062;28;20210;-47
2023/08/13 10:24:10;;;;;;;3.05;2.00;;;;;;;;;;4993966;28;20281;-47
2023/08/13 10:26:41;;;;;;;3.90;1.77;;;;;;;;;;4994041;28;20210;-47
2023/08/13 10:29:18;;;;;;;2.03;1.70;;;;;;;;;;4994202;28;20202;-47
2023/08/13 10:31:55;;;;;;;3.83;1.50;;;;;;;;;;4994087;28;20206;-48
2023/08/13 10:34:39;;;;;;;2.80;1.65;;;;;;;;;;4992662;28;20229;-49
2023/08/13 10:37:22;;;;;;;8.13;1.40;;;;;;;;;;4994290;28;20667;-49
2023/08/13 10:39:55;;;;;;;3.28;1.83;;;;;;;;;;4998069;28;20206;-47
2023/08/13 10:42:37;;;;;;;6.57;2.00;;;;;;;;;;4997873;28;20240;-47
2023/08/13 10:45:07;;;;;;;2.55;1.90;;;;;;;;;;4997938;28;20285;-47
2023/08/13 10:47:48;;;;;;;2.13;1.90;;;;;;;;;;4997498;28;20579;-49
2023/08/13 10:50:21;;;;;;;2.33;1.63;;;;;;;;;;4997814;28;20221;-47
2023/08/13 10:53:13;;;;;;;4.32;2.03;;;;;;;;;;4978092;28;20660;-51
2023/08/13 10:55:41;;;;;;;2.35;1.50;;;;;;;;;;4975666;28;20226;-51
2023/08/13 10:58:22;;;;;;;3.78;1.83;;;;;;;;;;4976628;28;20210;-50
2023/08/13 11:00:49;;;;;;;2.85;1.85;;;;;;;;;;4977047;28;20179;-46
2023/08/13 11:03:18;;;;;;;2.83;1.95;;;;;;;;;;4975266;28;20207;-47
2023/08/13 11:05:47;;;;;;;4.25;2.10;;;;;;;;;;4971577;28;20227;-52
2023/08/13 11:08:21;;;;;;;2.80;1.70;;;;;;;;;;4966129;28;20195;-49
2023/08/13 11:11:09;;;;;;;4.80;1.85;;;;;;;;;;4967657;28;20231;-50
2023/08/13 11:13:36;;;;;;;2.25;1.55;;;;;;;;;;4967972;28;20257;-54
2023/08/13 11:16:03;;;;;;;2.60;1.88;;;;;;;;;;4969281;28;20227;-55
2023/08/13 11:18:31;;;;;;;3.42;1.75;;;;;;;;;;4966975;28;20201;-60
2023/08/13 11:20:58;;;;;;;3.90;1.52;;;;;;;;;;4969339;28;20202;-59
2023/08/13 11:23:25;;;;;;;3.63;1.95;;;;;;;;;;4964020;28;20199;-59
2023/08/13 11:25:52;;;;;;;2.55;1.70;;;;;;;;;;4962106;28;20226;-59
2023/08/13 11:28:24;;;;;;;3.92;1.65;;;;;;;;;;4966736;28;20649;-59
2023/08/13 11:30:53;;;;;;;4.40;2.17;;;;;;;;;;4965105;28;20199;-59
2023/08/13 11:33:20;;;;;;;1.90;1.60;;;;;;;;;;4957355;28;20207;-60
2023/08/13 11:35:48;;;;;;;2.30;1.70;;;;;;;;;;4962144;28;20654;-59
2023/08/13 11:38:16;;;;;;;2.35;1.65;;;;;;;;;;4976638;28;20663;-59
2023/08/13 11:40:46;;;;;;;2.47;1.65;;;;;;;;;;4976404;28;20238;-59
2023/08/13 11:43:14;;;;;;;3.15;1.58;;;;;;;;;;4976285;28;20257;-59
2023/08/13 11:45:41;;;;;;;2.55;1.70;;;;;;;;;;4975658;28;20217;-59
2023/08/13 11:48:12;;;;;;;4.75;2.05;;;;;;;;;;4976301;28;20217;-59
2023/08/13 11:50:40;;;;;;;2.05;1.42;;;;;;;;;;4975456;28;20269;-59
2023/08/13 11:53:12;;;;;;;2.33;1.52;;;;;;;;;;4976424;28;20195;-59
2023/08/13 11:55:42;;;;;;;2.30;1.83;;;;;;;;;;4975764;28;20257;-59
2023/08/13 11:58:10;;;;;;;2.47;1.52;;;;;;;;;;4976329;28;20238;-58
2023/08/13 12:00:37;;;;;;;4.90;2.17;;;;;;;;;;4976416;28;20210;-58
2023/08/13 12:03:04;;;;;;;2.65;1.80;;;;;;;;;;4976236;28;20253;-59
2023/08/13 12:05:33;;;;;;;2.92;1.52;;;;;;;;;;4976746;28;20216;-60
2023/08/13 12:08:03;;;;;;;4.18;1.55;;;;;;;;;;4975907;28;20218;-60
2023/08/13 12:10:33;;;;;;;3.58;1.90;;;;;;;;;;4976127;28;20233;-58
2023/08/13 12:13:01;;;;;;;2.03;1.83;;;;;;;;;;4976062;28;20198;-60
2023/08/13 12:15:29;;;;;;;2.67;1.95;;;;;;;;;;4976338;28;20223;-60
2023/08/13 12:17:57;;;;;;;3.67;1.70;;;;;;;;;;4976037;28;20218;-60
2023/08/13 12:20:25;;;;;;;6.38;1.60;;;;;;;;;;4972766;28;20204;-59
2023/08/13 12:22:54;;;;;;;4.18;1.65;;;;;;;;;;4974597;28;20579;-60
2023/08/13 12:25:21;;;;;;;4.32;1.70;;;;;;;;;;4971547;28;20219;-60
2023/08/13 12:27:51;;;;;;;6.93;2.20;;;;;;;;;;4970537;28;20751;-60
2023/08/13 12:30:18;;;;;;;2.75;1.60;;;;;;;;;;4974826;28;20309;-60
2023/08/13 12:32:45;;;;;;;3.40;1.60;;;;;;;;;;4974504;28;20639;-59
2023/08/13 12:35:12;;;;;;;5.03;1.65;;;;;;;;;;4974946;28;20582;-60
2023/08/13 12:37:40;;;;;;;3.03;1.60;;;;;;;;;;4974807;28;20215;-60
2023/08/13 12:40:10;;;;;;;2.08;1.67;;;;;;;;;;4974965;28;20234;-60
2023/08/13 12:42:38;;;;;;;2.95;1.70;;;;;;;;;;4969737;28;20747;-59
2023/08/13 12:45:06;;;;;;;3.28;2.25;;;;;;;;;;4974432;28;20230;-60
2023/08/13 12:47:37;;;;;;;4.20;1.90;;;;;;;;;;4974787;28;20223;-60
2023/08/13 12:50:06;;;;;;;4.82;1.80;;;;;;;;;;4972013;28;20235;-59
2023/08/13 12:52:34;;;;;;;4.18;2.05;;;;;;;;;;4969205;28;20230;-60
2023/08/13 12:55:02;;;;;;;4.07;1.77;;;;;;;;;;4974379;28;20241;-59
2023/08/13 12:57:29;;;;;;;4.43;1.65;;;;;;;;;;4967696;28;20218;-58
2023/08/13 12:59:57;;;;;;;2.88;1.80;;;;;;;;;;4968448;28;20684;-59
2023/08/13 13:02:24;;;;;;;4.90;1.88;;;;;;;;;;4968574;28;20257;-58
2023/08/13 13:04:55;;;;;;;2.58;1.63;;;;;;;;;;4974986;28;20350;-59
2023/08/13 13:07:23;;;;;;;6.25;1.30;;;;;;;;;;4975775;28;20235;-50
2023/08/13 13:09:50;;;;;;;3.20;1.50;;;;;;;;;;4960180;28;20210;-59
2023/08/13 13:12:19;;;;;;;4.95;1.70;;;;;;;;;;4954463;29;20742;-56
2023/08/13 13:14:47;;;;;;;9.80;6.53;;;;;;;;;;4955203;28;20224;-49
2023/08/13 13:17:15;;;;;;;29.63;19.42;;;;;;;;;;4955639;28;20238;-53
2023/08/13 13:19:42;;;;;;;3.08;1.77;;;;;;;;;;4955357;28;20261;-50
2023/08/13 13:22:10;;;;;;;4.70;1.98;;;;;;;;;;4955746;28;20227;-44
2023/08/13 13:24:37;;;;;;;4.70;1.38;;;;;;;;;;4954863;28;20263;-44
2023/08/13 13:27:04;;;;;;;7.07;1.45;;;;;;;;;;4955424;28;20239;-44
2023/08/13 13:29:31;;;;;;;3.72;1.63;;;;;;;;;;4955475;28;20234;-42
2023/08/13 13:32:00;;;;;;;2.80;1.20;;;;;;;;;;4955481;28;20234;-47
2023/08/13 13:34:27;;;;;;;7.18;1.50;;;;;;;;;;4955461;28;20303;-58
2023/08/13 13:36:54;;;;;;;1.80;1.40;;;;;;;;;;4964055;28;20641;-43
2023/08/13 13:39:21;;;;;;;2.50;1.70;;;;;;;;;;4974943;28;20790;-51
2023/08/13 13:41:48;;;;;;;7.65;3.85;;;;;;;;;;4974029;28;20234;-46
2023/08/13 13:44:16;;;;;;;2.42;1.75;;;;;;;;;;4973684;28;20287;-48
2023/08/13 13:46:43;;;;;;;7.15;1.60;;;;;;;;;;4973726;28;20234;-50
2023/08/13 13:49:10;;;;;;;2.28;1.40;;;;;;;;;;4973930;28;20775;-58
2023/08/13 13:51:38;;;;;;;5.93;1.60;;;;;;;;;;4973695;28;20239;-48
2023/08/13 13:54:06;;;;;;;2.67;1.40;;;;;;;;;;4973388;28;20310;-57
2023/08/13 13:56:34;;;;;;;6.50;1.60;;;;;;;;;;4972877;28;20744;-58
2023/08/13 13:59:01;;;;;;;3.45;1.40;;;;;;;;;;4972423;28;20217;-54
2023/08/13 14:01:29;;;;;;;4.35;1.42;;;;;;;;;;4973105;28;20297;-57
2023/08/13 14:03:56;;;;;;;2.20;1.20;;;;;;;;;;4973300;28;20302;-45
2023/08/13 14:06:23;;;;;;;11.07;1.85;;;;;;;;;;4972516;28;20235;-45
2023/08/13 14:08:50;;;;;;;1.67;1.08;;;;;;;;;;4973079;28;20231;-57
2023/08/13 14:11:17;;;;;;;1.77;1.50;;;;;;;;;;4972147;28;20238;-57
2023/08/13 14:13:44;;;;;;;2.72;1.40;;;;;;;;;;4972734;28;20226;-57
2023/08/13 14:16:12;;;;;;;4.70;1.55;;;;;;;;;;4973151;28;20249;-47
2023/08/13 14:18:39;;;;;;;9.07;1.52;;;;;;;;;;4968378;28;20223;-47
2023/08/13 14:21:06;;;;;;;2.95;1.98;;;;;;;;;;4958365;28;20579;-47
2023/08/13 14:23:33;;;;;;;1.70;1.60;;;;;;;;;;4953955;28;20234;-56
2023/08/13 14:26:01;;;;;;;3.85;1.92;;;;;;;;;;4964485;28;20230;-48
2023/08/13 14:28:28;;;;;;;3.55;1.20;;;;;;;;;;4972479;28;20581;-46
2023/08/13 14:30:55;;;;;;;3.75;1.38;;;;;;;;;;4974062;28;20223;-52
2023/08/13 14:33:22;;;;;;;4.20;1.67;;;;;;;;;;4974066;28;20234;-58
2023/08/13 14:35:49;;;;;;;3.65;1.88;;;;;;;;;;4973513;28;22134;-44
2023/08/13 14:38:17;;;;;;;3.47;1.83;;;;;;;;;;4973927;28;20254;-45
2023/08/13 14:40:45;;;;;;;5.07;1.95;;;;;;;;;;4973369;28;20230;-45
2023/08/13 14:43:12;;;;;;;5.32;1.67;;;;;;;;;;4973959;28;20235;-57
2023/08/13 14:45:39;;;;;;;5.30;2.10;;;;;;;;;;4973782;28;20249;-46
2023/08/13 14:48:06;;;;;;;2.58;1.73;;;;;;;;;;4973458;28;20289;-45
2023/08/13 14:50:34;;;;;;;2.28;1.65;;;;;;;;;;4973694;28;20231;-43